createdAt,value
2019-04-11T00:02:22.693Z,100352.58
2019-04-11T00:04:55.038Z,100351.84
2019-04-11T00:07:27.949Z,100358.52
2019-04-11T00:09:59.913Z,100355.49
2019-04-11T00:12:33.017Z,100352.14
2019-04-11T00:15:04.743Z,100355.26
2019-04-11T00:17:36.362Z,100361.86
2019-04-11T00:20:09.621Z,100362.84
2019-04-11T00:22:41.565Z,100363.83
2019-04-11T00:25:13.592Z,100368.78
2019-04-11T00:27:45.504Z,100371.12
2019-04-11T00:30:17.987Z,100373.42
2019-04-11T00:32:49.877Z,100374.45
2019-04-11T00:35:21.858Z,100374.58
2019-04-11T00:37:53.723Z,100383.00
2019-04-11T00:40:25.340Z,100379.64
2019-04-11T00:42:57.047Z,100384.06
2019-04-11T00:45:29.708Z,100382.80
2019-04-11T00:48:01.677Z,100383.33
2019-04-11T00:50:33.625Z,100380.70
2019-04-11T00:53:05.608Z,100381.20
2019-04-11T00:55:37.700Z,100378.17
2019-04-11T00:58:09.642Z,100374.37
2019-04-11T01:00:42.981Z,100376.73
2019-04-11T01:03:14.866Z,100376.89
2019-04-11T01:05:47.850Z,100374.89
2019-04-11T01:08:19.847Z,100374.64
2019-04-11T01:10:52.818Z,100387.17
2019-04-11T01:13:25.843Z,100381.39
2019-04-11T01:16:02.976Z,100380.27
2019-04-11T01:18:36.109Z,100379.57
2019-04-11T01:21:08.672Z,100381.81
2019-04-11T01:23:40.378Z,100381.36
2019-04-11T01:26:12.849Z,100391.41
2019-04-11T01:28:44.946Z,100394.09
2019-04-11T01:31:18.325Z,100394.17
2019-04-11T01:33:49.956Z,100396.91
2019-04-11T01:36:22.895Z,100400.89
2019-04-11T01:38:57.053Z,100401.45
2019-04-11T01:41:28.956Z,100402.02
2019-04-11T01:44:03.750Z,100400.40
2019-04-11T01:46:34.097Z,100404.50
2019-04-11T01:49:17.083Z,100400.77
2019-04-11T01:51:49.960Z,100406.06
2019-04-11T01:54:21.866Z,100407.61
2019-04-11T01:56:53.746Z,100412.16
2019-04-11T01:59:25.352Z,100409.68
2019-04-11T02:02:15.002Z,100407.24
2019-04-11T02:04:54.499Z,100408.72
2019-04-11T02:07:27.084Z,100401.95
2019-04-11T02:09:58.670Z,100412.59
2019-04-11T02:12:31.041Z,100408.53
2019-04-11T02:15:03.921Z,100414.87
2019-04-11T02:17:35.655Z,100417.25
2019-04-11T02:20:09.137Z,100416.48
2019-04-11T02:22:50.772Z,100412.61
2019-04-11T02:25:59.182Z,100411.72
2019-04-11T02:28:32.848Z,100409.94
2019-04-11T02:31:05.381Z,100416.17
2019-04-11T02:33:38.915Z,100421.89
2019-04-11T02:36:12.258Z,100427.66
2019-04-11T02:38:46.458Z,100425.17
2019-04-11T02:41:19.002Z,100423.55
2019-04-11T02:43:51.057Z,100436.30
2019-04-11T02:46:34.620Z,100437.27
2019-04-11T02:48:58.448Z,100437.27
2019-04-11T02:51:31.162Z,100437.30
2019-04-11T02:54:04.724Z,100434.30
2019-04-11T02:56:36.742Z,100436.97
2019-04-11T02:59:09.013Z,100437.03
2019-04-11T03:01:42.082Z,100447.05
2019-04-11T03:04:14.846Z,100449.00
2019-04-11T03:06:47.929Z,100444.44
2019-04-11T03:09:21.974Z,100443.30
2019-04-11T03:11:54.650Z,100449.17
2019-04-11T03:14:27.743Z,100448.56
2019-04-11T03:17:10.699Z,100449.24
2019-04-11T03:19:43.990Z,100458.94
2019-04-11T03:22:08.103Z,100450.80
2019-04-11T03:24:40.653Z,100455.97
2019-04-11T03:27:12.243Z,100460.68
2019-04-11T03:29:45.272Z,100454.56
2019-04-11T03:33:04.597Z,100461.05
2019-04-11T03:35:37.686Z,100458.94
2019-04-11T03:37:50.211Z,100458.67
2019-04-11T03:40:19.548Z,100462.30
2019-04-11T03:42:43.181Z,100462.86
2019-04-11T03:45:27.622Z,100470.01
2019-04-11T03:47:56.097Z,100467.16
2019-04-11T03:50:17.002Z,100467.18
2019-04-11T03:52:46.292Z,100469.86
2019-04-11T03:55:21.451Z,100477.69
2019-04-11T03:57:54.338Z,100475.95
2019-04-11T04:00:31.314Z,100476.45
2019-04-11T04:03:01.459Z,100479.91
2019-04-11T04:05:36.293Z,100485.54
2019-04-11T04:08:06.463Z,100481.14
2019-04-11T04:10:43.600Z,100485.06
2019-04-11T04:13:17.612Z,100487.66
2019-04-11T04:16:12.160Z,100492.84
2019-04-11T04:18:43.583Z,100486.78
2019-04-11T04:21:38.586Z,100501.48
2019-04-11T04:24:32.153Z,100499.36
2019-04-11T04:27:04.490Z,100499.02
2019-04-11T04:29:37.730Z,100509.52
2019-04-11T04:32:09.823Z,100513.02
2019-04-11T04:34:42.222Z,100510.86
2019-04-11T04:37:16.158Z,100520.81
2019-04-11T04:39:50.298Z,100511.35
2019-04-11T04:42:31.083Z,100518.72
2019-04-11T04:44:58.110Z,100517.89
2019-04-11T04:47:37.026Z,100519.27
2019-04-11T04:50:04.564Z,100526.72
2019-04-11T04:52:38.034Z,100525.44
2019-04-11T04:55:10.656Z,100525.88
2019-04-11T04:57:44.816Z,100533.27
2019-04-11T05:00:18.846Z,100535.43
2019-04-11T05:02:52.246Z,100532.03
2019-04-11T05:05:24.484Z,100540.27
2019-04-11T05:07:58.319Z,100536.38
2019-04-11T05:10:30.619Z,100538.55
2019-04-11T05:13:03.583Z,100542.09
2019-04-11T05:15:36.606Z,100543.41
2019-04-11T05:18:09.358Z,100549.91
2019-04-11T05:20:41.824Z,100552.09
2019-04-11T05:23:13.927Z,100551.22
2019-04-11T05:25:46.610Z,100559.47
2019-04-11T05:28:19.263Z,100561.63
2019-04-11T05:30:51.265Z,100558.22
2019-04-11T05:33:23.271Z,100560.39
2019-04-11T05:35:54.834Z,100561.26
2019-04-11T05:38:27.381Z,100573.83
2019-04-11T05:40:58.978Z,100566.91
2019-04-11T05:43:36.640Z,100570.40
2019-04-11T05:46:21.946Z,100572.14
2019-04-11T05:49:03.784Z,100573.00
2019-04-11T05:51:40.927Z,100576.43
2019-04-11T05:54:10.621Z,100578.95
2019-04-11T05:56:43.535Z,100577.16
2019-04-11T05:59:20.037Z,100581.45
2019-04-11T06:02:01.602Z,100582.63
2019-04-11T06:04:42.814Z,100589.03
2019-04-11T06:07:30.561Z,100593.72
2019-04-11T06:10:09.764Z,100593.59
2019-04-11T06:12:59.434Z,100601.34
2019-04-11T06:15:36.243Z,100597.80
2019-04-11T06:18:37.365Z,100596.40
2019-04-11T06:21:11.757Z,100601.94
2019-04-11T06:24:08.146Z,100597.52
2019-04-11T06:27:15.253Z,100603.92
2019-04-11T06:29:52.978Z,100604.68
2019-04-11T06:32:43.472Z,100604.47
2019-04-11T06:35:26.141Z,100598.95
2019-04-11T06:38:30.327Z,100598.98
2019-04-11T06:41:12.490Z,100593.39
2019-04-11T06:43:50.081Z,100598.16
2019-04-11T06:46:51.707Z,100595.59
2019-04-11T06:49:18.327Z,100598.26
2019-04-11T06:51:55.099Z,100599.55
2019-04-11T06:54:34.358Z,100607.50
2019-04-11T06:57:09.834Z,100595.52
2019-04-11T06:59:44.802Z,100613.05
2019-04-11T07:02:20.300Z,100611.09
2019-04-11T07:04:52.378Z,100603.92
2019-04-11T07:07:28.789Z,100604.72
2019-04-11T07:10:03.909Z,100598.12
2019-04-11T07:12:57.284Z,100602.90
2019-04-11T07:15:37.672Z,100603.86
2019-04-11T07:18:27.157Z,100598.31
2019-04-11T07:21:01.014Z,100599.61
2019-04-11T07:23:51.649Z,100605.77
2019-04-11T07:26:42.184Z,100598.31
2019-04-11T07:29:33.700Z,100593.44
2019-04-11T07:32:20.221Z,100599.11
2019-04-11T07:35:10.843Z,100613.41
2019-04-11T07:37:44.700Z,100603.25
2019-04-11T07:40:35.334Z,100597.38
2019-04-11T07:43:29.256Z,100598.53
2019-04-11T07:46:22.649Z,100607.92
2019-04-11T07:49:08.450Z,100596.03
2019-04-11T07:51:46.408Z,100595.48
2019-04-11T07:54:32.059Z,100600.99
2019-04-11T07:57:12.928Z,100608.12
2019-04-11T08:00:00.266Z,100605.34
2019-04-11T08:02:49.088Z,100613.39
2019-04-11T08:05:54.484Z,100609.25
2019-04-11T08:08:49.330Z,100616.06
2019-04-11T08:11:28.508Z,100616.86
2019-04-11T08:14:22.399Z,100612.48
2019-04-11T08:17:07.237Z,100617.20
2019-04-11T08:19:57.459Z,100612.38
2019-04-11T08:22:36.965Z,100608.77
2019-04-11T08:25:26.773Z,100611.95
2019-04-11T08:28:05.894Z,100615.25
2019-04-11T08:30:55.555Z,100610.28
2019-04-11T08:33:28.802Z,100606.58
2019-04-11T08:36:22.496Z,100608.07
2019-04-11T08:38:56.392Z,100613.00
2019-04-11T08:41:56.977Z,100616.55
2019-04-11T08:44:36.177Z,100612.84
2019-04-11T08:47:13.117Z,100615.14
2019-04-11T08:49:48.105Z,100612.78
2019-04-11T08:52:40.316Z,100614.75
2019-04-11T08:55:24.344Z,100611.81
2019-04-11T08:58:20.533Z,100607.97
2019-04-11T09:01:00.231Z,100613.78
2019-04-11T09:04:02.149Z,100610.95
2019-04-11T09:06:32.679Z,100615.17
2019-04-11T09:09:42.856Z,100611.11
2019-04-11T09:12:15.097Z,100610.53
2019-04-11T09:15:10.747Z,100603.93
2019-04-11T09:18:01.062Z,100608.02
2019-04-11T09:20:43.497Z,100607.77
2019-04-11T09:23:17.735Z,100603.08
2019-04-11T09:26:07.602Z,100606.30
2019-04-11T09:28:51.594Z,100600.29
2019-04-11T09:31:43.464Z,100603.00
2019-04-11T09:34:52.823Z,100608.83
2019-04-11T09:37:29.521Z,100606.75
2019-04-11T09:40:20.153Z,100600.82
2019-04-11T09:43:19.944Z,100612.00
2019-04-11T09:46:28.686Z,100598.69
2019-04-11T09:49:24.852Z,100607.19
2019-04-11T09:52:05.619Z,100600.03
2019-04-11T09:55:07.213Z,100602.87
2019-04-11T09:57:46.085Z,100600.33
2019-04-11T10:00:41.047Z,100605.24
2019-04-11T10:03:23.369Z,100596.41
2019-04-11T10:06:21.607Z,100595.77
2019-04-11T10:08:57.657Z,100602.39
2019-04-11T10:11:59.919Z,100591.08
2019-04-11T10:14:31.672Z,100598.06
2019-04-11T10:17:22.709Z,100602.22
2019-04-11T10:20:02.762Z,100596.50
2019-04-11T10:22:52.276Z,100600.45
2019-04-11T10:25:28.262Z,100599.39
2019-04-11T10:28:31.483Z,100607.97
2019-04-11T10:31:20.531Z,100602.97
2019-04-11T10:34:14.233Z,100602.66
2019-04-11T10:36:55.794Z,100595.02
2019-04-11T10:40:01.861Z,100606.25
2019-04-11T10:42:34.968Z,100597.59
2019-04-11T10:45:29.407Z,100598.11
2019-04-11T10:48:07.750Z,100600.73
2019-04-11T10:50:58.234Z,100601.45
2019-04-11T10:53:31.187Z,100612.16
2019-04-11T10:56:22.210Z,100609.62
2019-04-11T10:58:55.848Z,100608.76
2019-04-11T11:01:46.414Z,100596.92
2019-04-11T11:04:20.860Z,100603.30
2019-04-11T11:06:55.910Z,100607.64
2019-04-11T11:10:03.192Z,100599.95
2019-04-11T11:12:57.308Z,100602.83
2019-04-11T11:15:31.664Z,100602.63
2019-04-11T11:18:42.685Z,100601.56
2019-04-11T11:21:00.323Z,100607.47
2019-04-11T11:23:32.986Z,100613.53
2019-04-11T11:26:22.581Z,100614.03
2019-04-11T11:29:13.443Z,100624.75
2019-04-11T11:32:07.638Z,100618.05
2019-04-11T11:34:57.469Z,100620.59
2019-04-11T11:37:50.173Z,100618.51
2019-04-11T11:40:42.402Z,100617.56
2019-04-11T11:43:19.615Z,100619.21
2019-04-11T11:46:16.118Z,100631.30
2019-04-11T11:49:08.061Z,100625.77
2019-04-11T11:52:01.565Z,100619.03
2019-04-11T11:54:39.807Z,100616.73
2019-04-11T11:57:20.409Z,100609.63
2019-04-11T12:00:00.790Z,100608.22
2019-04-11T12:02:37.003Z,100608.16
2019-04-11T12:05:18.086Z,100606.63
2019-04-11T12:07:56.079Z,100609.14
2019-04-11T12:10:41.659Z,100608.64
2019-04-11T12:13:28.348Z,100611.38
2019-04-11T12:16:21.910Z,100607.09
2019-04-11T12:19:22.184Z,100603.08
2019-04-11T12:21:55.875Z,100609.14
2019-04-11T12:24:38.850Z,100606.87
2019-04-11T12:27:28.950Z,100609.31
2019-04-11T12:30:20.857Z,100596.52
2019-04-11T12:33:08.938Z,100597.30
2019-04-11T12:35:51.074Z,100600.23
2019-04-11T12:38:47.467Z,100591.42
2019-04-11T12:41:30.945Z,100590.41
2019-04-11T12:44:29.127Z,100596.89
2019-04-11T12:47:20.873Z,100611.32
2019-04-11T12:50:20.214Z,100604.27
2019-04-11T12:52:58.299Z,100604.21
2019-04-11T12:55:35.357Z,100602.34
2019-04-11T12:58:33.036Z,100592.72
2019-04-11T13:01:41.688Z,100594.83
2019-04-11T13:04:30.777Z,100594.60
2019-04-11T13:07:33.416Z,100598.89
2019-04-11T13:10:24.193Z,100590.82
2019-04-11T13:13:20.738Z,100600.11
2019-04-11T13:15:56.581Z,100596.95
2019-04-11T13:18:47.100Z,100584.47
2019-04-11T13:21:31.701Z,100580.75
2019-04-11T13:24:37.470Z,100579.59
2019-04-11T13:27:28.103Z,100578.55
2019-04-11T13:30:18.993Z,100565.36
2019-04-11T13:32:53.743Z,100578.08
2019-04-11T13:36:02.348Z,100574.03
2019-04-11T13:38:41.326Z,100577.45
2019-04-11T13:41:34.962Z,100564.97
2019-04-11T13:44:15.818Z,100568.00
2019-04-11T13:47:06.562Z,100571.85
2019-04-11T13:49:46.178Z,100564.11
2019-04-11T13:52:36.793Z,100570.33
2019-04-11T13:55:14.528Z,100567.99
2019-04-11T13:58:05.590Z,100563.27
2019-04-11T14:00:56.553Z,100561.25
2019-04-11T14:03:47.469Z,100548.69
2019-04-11T14:06:30.836Z,100561.11
2019-04-11T14:09:13.256Z,100550.00
2019-04-11T14:11:48.918Z,100554.75
2019-04-11T14:14:32.968Z,100558.99
2019-04-11T14:17:12.784Z,100557.94
2019-04-11T14:19:58.833Z,100552.16
2019-04-11T14:22:36.477Z,100559.14
2019-04-11T14:25:27.707Z,100551.23
2019-04-11T14:28:01.387Z,100548.99
2019-04-11T14:30:51.641Z,100557.69
2019-04-11T14:33:25.189Z,100552.70
2019-04-11T14:36:33.892Z,100556.98
2019-04-11T14:39:11.418Z,100556.59
2019-04-11T14:42:01.564Z,100556.20
2019-04-11T14:44:34.032Z,100559.98
2019-04-11T14:47:30.653Z,100555.10
2019-04-11T14:50:03.740Z,100553.39
2019-04-11T14:52:54.299Z,100563.19
2019-04-11T14:55:26.747Z,100562.80
2019-04-11T14:58:16.120Z,100560.69
2019-04-11T15:00:48.972Z,100552.95
2019-04-11T15:03:58.016Z,100553.97
2019-04-11T15:06:33.838Z,100558.39
2019-04-11T15:09:24.877Z,100556.22
2019-04-11T15:12:17.554Z,100559.14
2019-04-11T15:15:20.014Z,100555.91
2019-04-11T15:17:55.885Z,100554.88
2019-04-11T15:20:42.353Z,100552.00
2019-04-11T15:23:17.959Z,100560.23
2019-04-11T15:26:08.815Z,100556.28
2019-04-11T15:29:05.512Z,100559.92
2019-04-11T15:31:55.788Z,100559.06
2019-04-11T15:34:44.493Z,100562.09
2019-04-11T15:37:30.758Z,100556.42
2019-04-11T15:40:10.141Z,100565.36
2019-04-11T15:43:06.654Z,100562.27
2019-04-11T15:45:50.212Z,100560.95
2019-04-11T15:48:53.834Z,100568.30
2019-04-11T15:51:48.442Z,100567.90
2019-04-11T15:54:42.102Z,100568.86
2019-04-11T15:57:33.410Z,100566.36
2019-04-11T16:00:27.646Z,100567.78
2019-04-11T16:03:17.061Z,100562.50
2019-04-11T16:06:07.669Z,100565.43
2019-04-11T16:08:46.969Z,100567.67
2019-04-11T16:11:51.375Z,100571.73
2019-04-11T16:14:27.522Z,100567.28
2019-04-11T16:17:35.845Z,100573.88
2019-04-11T16:20:17.772Z,100582.19
2019-04-11T16:23:07.668Z,100572.56
2019-04-11T16:25:40.828Z,100568.61
2019-04-11T16:28:30.097Z,100572.20
2019-04-11T16:31:02.075Z,100580.64
2019-04-11T16:33:51.712Z,100575.54
2019-04-11T16:36:34.188Z,100571.33
2019-04-11T16:39:42.865Z,100573.34
2019-04-11T16:42:17.076Z,100576.61
2019-04-11T16:45:16.402Z,100578.56
2019-04-11T16:48:15.774Z,100580.34
2019-04-11T16:50:47.495Z,100575.53
2019-04-11T16:53:19.203Z,100582.26
2019-04-11T16:55:53.790Z,100584.89
2019-04-11T16:58:24.953Z,100579.26
2019-04-11T17:00:56.716Z,100585.92
2019-04-11T17:03:28.755Z,100580.09
2019-04-11T17:06:19.358Z,100587.53
2019-04-11T17:09:06.347Z,100589.48
2019-04-11T17:11:38.701Z,100593.67
2019-04-11T17:14:11.898Z,100595.52
2019-04-11T17:16:43.783Z,100595.58
2019-04-11T17:19:15.670Z,100590.41
2019-04-11T17:21:48.943Z,100597.13
2019-04-11T17:24:20.958Z,100601.70
2019-04-11T17:26:53.497Z,100593.17
2019-04-11T17:29:25.514Z,100599.66
2019-04-11T17:31:57.267Z,100604.75
2019-04-11T17:34:32.114Z,100603.42
2019-04-11T17:37:03.386Z,100605.45
2019-04-11T17:39:36.761Z,100609.62
2019-04-11T17:42:10.897Z,100609.77
2019-04-11T17:44:42.486Z,100611.61
2019-04-11T17:47:14.340Z,100608.73
2019-04-11T17:49:46.198Z,100618.08
2019-04-11T17:52:17.909Z,100620.93
2019-04-11T17:54:51.948Z,100622.52
2019-04-11T17:57:26.774Z,100626.69
2019-04-11T17:59:59.121Z,100631.86
2019-04-11T18:02:30.613Z,100634.21
2019-04-11T18:05:02.382Z,100636.59
2019-04-11T18:07:34.222Z,100637.27
2019-04-11T18:10:07.153Z,100641.02
2019-04-11T18:12:38.882Z,100640.31
2019-04-11T18:15:11.270Z,100644.98
2019-04-11T18:17:42.987Z,100649.19
2019-04-11T18:20:15.458Z,100652.02
2019-04-11T18:22:50.110Z,100648.80
2019-04-11T18:25:21.554Z,100651.63
2019-04-11T18:27:53.527Z,100652.23
2019-04-11T18:30:26.399Z,100651.63
2019-04-11T18:32:57.177Z,100657.02
2019-04-11T18:35:26.572Z,100662.53
2019-04-11T18:38:01.727Z,100673.25
2019-04-11T18:40:33.060Z,100674.27
2019-04-11T18:43:04.830Z,100677.47
2019-04-11T18:45:37.349Z,100683.77
2019-04-11T18:48:09.053Z,100683.96
2019-04-11T18:50:40.988Z,100681.58
2019-04-11T18:53:12.748Z,100676.56
2019-04-11T18:55:44.659Z,100689.89
2019-04-11T18:58:16.392Z,100695.73
2019-04-11T19:00:48.821Z,100693.75
2019-04-11T19:03:20.527Z,100695.62
2019-04-11T19:05:52.247Z,100697.57
2019-04-11T19:08:24.066Z,100703.46
2019-04-11T19:10:56.034Z,100707.58
2019-04-11T19:13:27.753Z,100712.16
2019-04-11T19:16:00.601Z,100709.84
2019-04-11T19:18:32.383Z,100708.93
2019-04-11T19:21:04.196Z,100715.13
2019-04-11T19:23:36.723Z,100716.09
2019-04-11T19:26:09.381Z,100718.37
2019-04-11T19:28:41.244Z,100721.09
2019-04-11T19:31:13.698Z,100713.75
2019-04-11T19:33:45.713Z,100723.78
2019-04-11T19:36:17.508Z,100724.59
2019-04-11T19:38:49.552Z,100727.08
2019-04-11T19:41:21.339Z,100731.24
2019-04-11T19:43:53.298Z,100731.51
2019-04-11T19:46:25.044Z,100731.66
2019-04-11T19:48:59.429Z,100733.61
2019-04-11T19:51:30.679Z,100726.34
2019-04-11T19:54:03.391Z,100730.42
2019-04-11T19:56:43.237Z,100728.41
2019-04-11T19:59:14.985Z,100737.16
2019-04-11T20:01:46.778Z,100731.92
2019-04-11T20:04:21.719Z,100729.30
2019-04-11T20:06:53.023Z,100731.51
2019-04-11T20:09:25.058Z,100729.03
2019-04-11T20:11:57.990Z,100726.59
2019-04-11T20:14:34.132Z,100731.16
2019-04-11T20:17:04.267Z,100731.85
2019-04-11T20:19:35.966Z,100738.09
2019-04-11T20:22:09.339Z,100741.20
2019-04-11T20:24:45.747Z,100740.47
2019-04-11T20:27:14.655Z,100736.38
2019-04-11T20:29:46.416Z,100740.06
2019-04-11T20:32:18.223Z,100735.47
2019-04-11T20:34:50.247Z,100742.66
2019-04-11T20:37:24.414Z,100742.92
2019-04-11T20:39:59.679Z,100737.95
2019-04-11T20:42:31.442Z,100742.52
2019-04-11T20:45:03.373Z,100744.91
2019-04-11T20:47:35.104Z,100752.46
2019-04-11T20:50:08.434Z,100749.91
2019-04-11T20:52:40.146Z,100759.16
2019-04-11T20:55:13.046Z,100760.59
2019-04-11T20:57:44.729Z,100761.59
2019-04-11T21:00:17.030Z,100762.58
2019-04-11T21:02:49.112Z,100768.75
2019-04-11T21:05:21.091Z,100768.75
2019-04-11T21:07:52.826Z,100767.84
2019-04-11T21:10:25.239Z,100771.34
2019-04-11T21:12:57.026Z,100772.63
2019-04-11T21:15:28.761Z,100769.14
2019-04-11T21:18:00.755Z,100769.17
2019-04-11T21:20:32.486Z,100770.92
2019-04-11T21:23:04.187Z,100773.54
2019-04-11T21:25:36.592Z,100773.13
2019-04-11T21:28:08.327Z,100779.21
2019-04-11T21:30:40.004Z,100776.24
2019-04-11T21:33:11.909Z,100782.80
2019-04-11T21:35:43.740Z,100778.91
2019-04-11T21:38:15.418Z,100781.17
2019-04-11T21:40:47.857Z,100780.75
2019-04-11T21:43:19.562Z,100785.56
2019-04-11T21:45:51.585Z,100788.17
2019-04-11T21:48:23.443Z,100791.23
2019-04-11T21:50:55.115Z,100795.22
2019-04-11T21:53:36.071Z,100794.83
2019-04-11T21:56:00.973Z,100805.37
2019-04-11T21:58:32.634Z,100801.05
2019-04-11T22:01:10.385Z,100799.33
2019-04-11T22:03:42.766Z,100803.25
2019-04-11T22:06:14.787Z,100799.83
2019-04-11T22:08:46.727Z,100803.78
2019-04-11T22:11:19.079Z,100806.06
2019-04-11T22:13:50.728Z,100810.03
2019-04-11T22:16:22.397Z,100814.48
2019-04-11T22:18:54.190Z,100813.20
2019-04-11T22:21:25.895Z,100808.91
2019-04-11T22:23:57.629Z,100811.97
2019-04-11T22:26:29.267Z,100812.08
2019-04-11T22:29:01.406Z,100813.41
2019-04-11T22:31:33.018Z,100816.11
2019-04-11T22:34:22.451Z,100817.95
2019-04-11T22:36:54.276Z,100809.78
2019-04-11T22:39:26.097Z,100822.96
2019-04-11T22:41:57.775Z,100823.00
2019-04-11T22:44:29.809Z,100820.92
2019-04-11T22:47:01.449Z,100828.39
2019-04-11T22:49:33.090Z,100823.20
2019-04-11T22:52:04.769Z,100821.95
2019-04-11T22:54:36.414Z,100822.89
2019-04-11T22:57:11.887Z,100832.55
2019-04-11T22:59:45.034Z,100829.14
2019-04-11T23:02:28.594Z,100828.33
2019-04-11T23:05:00.215Z,100831.02
2019-04-11T23:07:31.889Z,100828.05
2019-04-11T23:10:03.632Z,100832.06
2019-04-11T23:12:35.291Z,100830.82
2019-04-11T23:15:08.818Z,100830.45
2019-04-11T23:17:44.086Z,100838.30
2019-04-11T23:20:15.422Z,100834.88
2019-04-11T23:22:47.113Z,100836.64
2019-04-11T23:25:18.827Z,100850.59
2019-04-11T23:27:50.438Z,100840.25
2019-04-11T23:30:22.528Z,100845.95
2019-04-11T23:32:54.386Z,100852.03
2019-04-11T23:35:26.120Z,100847.72
2019-04-11T23:37:57.769Z,100855.13
2019-04-11T23:40:29.475Z,100853.01
2019-04-11T23:43:01.239Z,100850.87
2019-04-11T23:45:33.755Z,100860.50
2019-04-11T23:48:05.537Z,100856.18
2019-04-11T23:50:37.159Z,100861.89
2019-04-11T23:53:08.778Z,100861.04
2019-04-11T23:55:40.420Z,100865.46
2019-04-11T23:58:12.059Z,100865.12
